createdAt,value
2023-01-13T00:05:19.178Z,1.70
2023-01-13T00:11:30.292Z,1.80
2023-01-13T00:17:39.955Z,2.65
2023-01-13T00:23:47.663Z,2.60
2023-01-13T00:30:00.674Z,2.55
2023-01-13T00:36:14.382Z,2.08
2023-01-13T00:42:44.280Z,2.30
2023-01-13T00:48:54.910Z,1.85
2023-01-13T00:55:05.619Z,1.82
2023-01-13T01:01:17.337Z,1.67
2023-01-13T01:07:27.087Z,1.85
2023-01-13T01:13:37.302Z,1.65
2023-01-13T01:19:46.528Z,2.00
2023-01-13T01:25:59.102Z,2.65
2023-01-13T01:32:13.533Z,1.62
2023-01-13T01:38:26.406Z,1.77
2023-01-13T01:44:57.819Z,1.30
2023-01-13T01:51:06.527Z,1.98
2023-01-13T01:57:20.726Z,1.52
2023-01-13T02:03:34.098Z,1.52
2023-01-13T02:09:48.530Z,1.42
2023-01-13T02:16:08.310Z,1.45
2023-01-13T02:22:35.999Z,1.92
2023-01-13T02:29:41.347Z,1.45
2023-01-13T02:35:54.642Z,1.12
2023-01-13T02:42:23.916Z,1.67
2023-01-13T02:48:36.252Z,1.20
2023-01-13T02:54:49.653Z,1.05
2023-01-13T03:01:01.197Z,1.50
2023-01-13T03:07:18.087Z,1.17
2023-01-13T03:14:00.272Z,1.30
2023-01-13T03:20:17.804Z,1.32
2023-01-13T03:26:31.253Z,0.80
2023-01-13T03:32:44.968Z,0.95
2023-01-13T03:38:56.679Z,0.90
2023-01-13T03:45:12.076Z,0.80
2023-01-13T03:51:22.474Z,1.20
2023-01-13T03:57:33.444Z,0.80
2023-01-13T04:03:46.726Z,0.85
2023-01-13T04:10:00.262Z,0.75
2023-01-13T04:16:14.208Z,0.90
2023-01-13T04:22:25.341Z,1.30
2023-01-13T04:28:35.588Z,0.75
2023-01-13T04:34:47.280Z,1.35
2023-01-13T04:40:57.804Z,1.92
2023-01-13T04:47:09.866Z,1.60
2023-01-13T04:53:20.219Z,1.30
2023-01-13T04:59:27.725Z,1.72
2023-01-13T05:05:40.552Z,1.00
2023-01-13T05:12:06.627Z,2.22
2023-01-13T05:18:14.603Z,2.85
2023-01-13T05:24:43.799Z,2.05
2023-01-13T05:30:54.284Z,1.90
2023-01-13T05:37:10.028Z,2.65
2023-01-13T05:43:24.408Z,1.60
2023-01-13T05:49:37.887Z,1.77
2023-01-13T05:55:52.972Z,2.25
2023-01-13T06:02:00.897Z,1.60
2023-01-13T06:08:14.401Z,1.55
2023-01-13T06:14:28.426Z,1.20
2023-01-13T06:20:40.053Z,1.12
2023-01-13T06:26:49.161Z,1.32
2023-01-13T06:33:00.957Z,0.98
2023-01-13T06:39:12.012Z,0.98
2023-01-13T06:45:21.992Z,1.35
2023-01-13T06:51:32.253Z,1.20
2023-01-13T06:57:50.384Z,1.00
2023-01-13T07:04:03.505Z,0.98
2023-01-13T07:10:21.899Z,1.62
2023-01-13T07:16:33.054Z,1.22
2023-01-13T07:22:41.366Z,1.45
2023-01-13T07:28:48.868Z,1.20
2023-01-13T07:35:00.687Z,1.10
2023-01-13T07:41:28.431Z,1.30
2023-01-13T07:47:39.795Z,1.22
2023-01-13T07:53:51.915Z,1.77
2023-01-13T08:00:00.994Z,1.17
2023-01-13T08:06:11.126Z,1.50
2023-01-13T08:12:36.439Z,1.52
2023-01-13T08:18:47.522Z,1.60
2023-01-13T08:25:02.017Z,1.90
2023-01-13T08:31:12.209Z,1.65
2023-01-13T08:37:25.190Z,1.30
2023-01-13T08:43:34.484Z,1.20
2023-01-13T08:49:47.965Z,1.15
2023-01-13T08:55:57.394Z,1.25
2023-01-13T09:02:08.813Z,1.30
2023-01-13T09:08:23.439Z,1.50
2023-01-13T09:14:36.622Z,1.65
2023-01-13T09:20:45.893Z,1.32
2023-01-13T09:26:55.628Z,1.40
2023-01-13T09:39:28.557Z,1.70
2023-01-13T09:45:42.627Z,1.30
2023-01-13T09:51:55.576Z,1.50
2023-01-13T09:58:07.024Z,1.00
2023-01-13T10:04:17.825Z,1.35
2023-01-13T10:10:30.110Z,1.40
2023-01-13T10:16:43.489Z,1.45
2023-01-13T10:22:58.019Z,1.25
2023-01-13T10:29:09.571Z,2.15
2023-01-13T10:35:21.979Z,0.82
2023-01-13T10:41:33.886Z,0.93
2023-01-13T10:47:41.724Z,1.98
2023-01-13T10:53:56.198Z,1.25
2023-01-13T11:00:06.347Z,1.00
2023-01-13T11:06:17.270Z,1.60
2023-01-13T11:12:55.837Z,1.25
2023-01-13T11:19:10.112Z,0.90
2023-01-13T11:25:23.282Z,1.02
2023-01-13T11:31:39.490Z,0.90
2023-01-13T11:37:54.355Z,1.77
2023-01-13T11:44:10.363Z,1.40
2023-01-13T11:50:21.204Z,1.60
2023-01-13T11:56:41.834Z,1.35
2023-01-13T12:02:58.726Z,1.00
2023-01-13T12:09:24.640Z,1.00
2023-01-13T12:15:56.405Z,1.40
2023-01-13T12:22:13.676Z,1.75
2023-01-13T12:28:24.094Z,1.42
2023-01-13T12:34:43.594Z,1.10
2023-01-13T12:40:56.875Z,1.20
2023-01-13T12:47:08.273Z,1.10
2023-01-13T12:53:36.823Z,1.10
2023-01-13T12:59:52.280Z,1.10
2023-01-13T13:06:11.080Z,1.47
2023-01-13T13:12:55.459Z,1.25
2023-01-13T13:19:32.059Z,1.62
2023-01-13T13:25:41.645Z,1.42
2023-01-13T13:32:32.604Z,1.12
2023-01-13T13:39:20.639Z,0.82
2023-01-13T13:45:46.870Z,1.20
2023-01-13T13:51:58.723Z,1.17
2023-01-13T13:58:06.924Z,1.10
2023-01-13T14:04:20.775Z,1.05
2023-01-13T14:10:32.579Z,0.82
2023-01-13T14:16:43.725Z,1.67
2023-01-13T14:22:57.605Z,1.50
2023-01-13T14:29:11.676Z,1.32
2023-01-13T14:35:20.890Z,1.35
2023-01-13T14:41:32.391Z,0.93
2023-01-13T14:47:40.310Z,1.20
2023-01-13T14:53:50.144Z,1.00
2023-01-13T15:00:27.333Z,1.15
2023-01-13T15:06:38.460Z,1.25
2023-01-13T15:12:50.636Z,1.15
2023-01-13T15:19:05.759Z,1.07
2023-01-13T15:25:17.549Z,0.98
2023-01-13T15:31:29.979Z,0.90
2023-01-13T15:37:44.595Z,1.00
2023-01-13T15:44:14.177Z,1.07
2023-01-13T15:50:25.845Z,0.70
2023-01-13T15:56:41.014Z,0.88
2023-01-13T16:02:53.160Z,0.60
2023-01-13T16:09:05.841Z,0.85
2023-01-13T16:15:21.715Z,0.47
2023-01-13T16:21:33.817Z,0.60
2023-01-13T16:27:43.870Z,0.93
2023-01-13T16:33:53.889Z,1.55
2023-01-13T16:40:08.160Z,0.55
2023-01-13T16:46:24.671Z,0.70
2023-01-13T16:52:35.553Z,0.42
2023-01-13T16:58:51.375Z,1.07
2023-01-13T17:05:03.079Z,0.97
2023-01-13T17:17:33.645Z,0.47
2023-01-13T17:23:43.183Z,0.80
2023-01-13T17:29:57.118Z,0.62
2023-01-13T17:36:10.049Z,0.93
2023-01-13T17:42:20.096Z,0.60
2023-01-13T17:48:30.618Z,0.98
2023-01-13T17:54:43.717Z,0.65
2023-01-13T18:00:55.784Z,0.60
2023-01-13T18:07:09.740Z,0.80
2023-01-13T18:13:20.604Z,0.68
2023-01-13T18:19:47.615Z,0.72
2023-01-13T18:26:17.018Z,0.90
2023-01-13T18:32:32.455Z,0.55
2023-01-13T18:38:43.013Z,0.80
2023-01-13T18:44:53.272Z,0.65
2023-01-13T18:51:02.657Z,0.55
2023-01-13T18:57:14.899Z,0.75
2023-01-13T19:03:30.588Z,0.70
2023-01-13T19:09:42.931Z,0.50
2023-01-13T19:15:55.255Z,0.40
2023-01-13T19:22:04.615Z,0.88
2023-01-13T19:28:14.303Z,0.70
2023-01-13T19:34:25.978Z,0.60
2023-01-13T19:40:35.293Z,0.50
2023-01-13T19:46:48.335Z,0.72
2023-01-13T19:53:04.562Z,0.50
2023-01-13T19:59:20.684Z,0.33
2023-01-13T20:05:33.775Z,0.65
2023-01-13T20:11:44.418Z,0.50
2023-01-13T20:17:55.867Z,0.50
2023-01-13T20:24:13.157Z,0.42
2023-01-13T20:30:27.363Z,0.57
2023-01-13T20:36:41.461Z,0.37
2023-01-13T20:42:53.456Z,0.70
2023-01-13T20:49:06.540Z,0.50
2023-01-13T20:55:20.130Z,0.95
2023-01-13T21:01:32.962Z,0.50
2023-01-13T21:07:46.890Z,0.40
2023-01-13T21:14:14.338Z,0.70
2023-01-13T21:20:24.485Z,0.53
2023-01-13T21:26:35.312Z,0.40
2023-01-13T21:32:45.138Z,1.00
2023-01-13T21:39:02.089Z,0.40
2023-01-13T21:45:29.806Z,0.60
2023-01-13T21:51:43.886Z,0.40
2023-01-13T21:57:54.305Z,1.00
2023-01-13T22:04:22.413Z,0.88
2023-01-13T22:10:34.940Z,0.50
2023-01-13T22:16:45.403Z,0.50
2023-01-13T22:22:54.755Z,0.50
2023-01-13T22:29:04.438Z,0.80
2023-01-13T22:35:19.771Z,0.95
2023-01-13T22:41:30.458Z,0.37
2023-01-13T22:47:50.739Z,0.57
2023-01-13T22:54:05.068Z,0.98
2023-01-13T23:00:18.524Z,0.75
2023-01-13T23:06:33.302Z,0.68
2023-01-13T23:12:44.179Z,0.50
2023-01-13T23:18:54.699Z,1.12
2023-01-13T23:25:06.739Z,0.78
2023-01-13T23:31:20.060Z,0.40
2023-01-13T23:37:31.316Z,0.90
2023-01-13T23:43:46.910Z,0.50
2023-01-13T23:49:54.692Z,0.73
2023-01-13T23:56:07.992Z,0.40
